Decoded Metar for YBMA (MOUNT ISA in AUSTRALIA) (IATA:ISA) | Meteo·Mobile Aviation Weather
aviador You're here:

YBMA Decoded Metar

MOUNT ISA in AUSTRALIA
Report Time2019-07-24 04:00:00
UTC Time2019-07-24 04:33:35
Flight Rules vfr VFR
Wind130° at 13 kt
W.Decomp.*RWY 16: 10.6 kt HW 7.5 kt LCW
Visibility9999 m
Phenomena:N/A
Clouds:N/A
Expected CloudBase > 10,400 ft AGL from Temp-Dew spread
CeilingNone
Temp27°C (ISA +14)
Dew Point01°C (18% RH)
Heat Index26.0°C
AAT20.4°C
QNH1021 hPa
Density Alt2,595 ft
Elevation1,129 ft
Report Wrong Elevation
Raw Report
YBMA 240400Z AUTO 13013KT 9999 // NCD 27/01 Q1021=

Extra information for YBMA:More info

Metar Taf Metar & Taf Last 4 Metars F.Rules Stats Wind Profile Meteogram Temp Stats Airport Information Weather charts Add Link Nearby VenuesMetar ALERT Operation Metar Decoded Social comments